createdAt,value
2023-02-06T00:01:46.502Z,97560.41
2023-02-06T00:04:13.310Z,97561.16
2023-02-06T00:06:39.747Z,97560.56
2023-02-06T00:09:06.868Z,97558.25
2023-02-06T00:11:33.748Z,97572.03
2023-02-06T00:14:00.163Z,97571.09
2023-02-06T00:16:27.841Z,97579.56
2023-02-06T00:18:54.896Z,97578.13
2023-02-06T00:21:22.063Z,97569.19
2023-02-06T00:23:49.205Z,97565.88
2023-02-06T00:26:15.664Z,97576.94
2023-02-06T00:28:42.104Z,97568.13
2023-02-06T00:31:09.080Z,97568.16
2023-02-06T00:33:35.739Z,97578.97
2023-02-06T00:36:02.481Z,97576.28
2023-02-06T00:38:29.096Z,97584.00
2023-02-06T00:40:55.908Z,97580.81
2023-02-06T00:43:22.453Z,97585.31
2023-02-06T00:45:52.692Z,97577.47
2023-02-06T00:48:19.298Z,97573.09
2023-02-06T00:50:47.555Z,97581.97
2023-02-06T00:53:13.992Z,97581.34
2023-02-06T00:55:40.418Z,97579.59
2023-02-06T00:58:07.043Z,97582.84
2023-02-06T01:00:33.498Z,97575.88
2023-02-06T01:03:00.032Z,97569.72
2023-02-06T01:05:26.700Z,97568.31
2023-02-06T01:07:53.167Z,97573.06
2023-02-06T01:10:19.812Z,97564.97
2023-02-06T01:12:46.270Z,97562.22
2023-02-06T01:15:13.519Z,97561.06
2023-02-06T01:17:40.489Z,97561.91
2023-02-06T01:20:08.401Z,97567.31
2023-02-06T01:22:35.196Z,97574.81
2023-02-06T01:25:01.769Z,97574.97
2023-02-06T01:27:28.299Z,97578.28
2023-02-06T01:29:54.912Z,97568.09
2023-02-06T01:32:21.481Z,97577.47
2023-02-06T01:34:47.908Z,97564.28
2023-02-06T01:37:14.368Z,97564.50
2023-02-06T01:39:40.788Z,97561.34
2023-02-06T01:42:07.232Z,97571.84
2023-02-06T01:44:34.084Z,97571.25
2023-02-06T01:47:00.546Z,97570.91
2023-02-06T01:49:39.524Z,97571.81
2023-02-06T01:52:15.594Z,97573.09
2023-02-06T01:54:43.391Z,97561.69
2023-02-06T01:57:11.167Z,97570.22
2023-02-06T01:59:38.097Z,97558.81
2023-02-06T02:02:04.605Z,97556.66
2023-02-06T02:04:32.601Z,97558.16
2023-02-06T02:07:04.789Z,97554.25
2023-02-06T02:09:31.628Z,97548.22
2023-02-06T02:11:58.063Z,97551.16
2023-02-06T02:14:24.559Z,97552.66
2023-02-06T02:16:53.798Z,97555.00
2023-02-06T02:19:46.445Z,97534.81
2023-02-06T02:22:12.854Z,97529.16
2023-02-06T02:24:48.465Z,97536.56
2023-02-06T02:27:17.910Z,97536.44
2023-02-06T02:30:03.172Z,97536.25
2023-02-06T02:32:29.559Z,97534.59
2023-02-06T02:35:11.989Z,97533.00
2023-02-06T02:37:58.644Z,97533.84
2023-02-06T02:40:28.665Z,97521.78
2023-02-06T02:42:57.857Z,97531.41
2023-02-06T02:45:29.098Z,97526.97
2023-02-06T02:48:03.371Z,97525.50
2023-02-06T02:50:29.906Z,97523.97
2023-02-06T02:52:57.912Z,97526.56
2023-02-06T02:55:24.557Z,97521.13
2023-02-06T02:57:54.009Z,97517.38
2023-02-06T03:00:21.409Z,97521.97
2023-02-06T03:02:49.197Z,97518.78
2023-02-06T03:05:20.175Z,97523.81
2023-02-06T03:07:53.263Z,97524.66
2023-02-06T03:10:31.819Z,97526.72
2023-02-06T03:13:10.545Z,97512.09
2023-02-06T03:15:43.194Z,97510.44
2023-02-06T03:18:11.891Z,97512.25
2023-02-06T03:20:41.867Z,97503.75
2023-02-06T03:23:08.435Z,97507.25
2023-02-06T03:25:41.623Z,97500.25
2023-02-06T03:28:13.876Z,97498.56
2023-02-06T03:30:42.389Z,97504.09
2023-02-06T03:33:10.895Z,97493.91
2023-02-06T03:35:38.572Z,97496.72
2023-02-06T03:38:06.887Z,97497.91
2023-02-06T03:40:34.141Z,97494.84
2023-02-06T03:43:02.881Z,97501.13
2023-02-06T03:45:41.778Z,97494.84
2023-02-06T03:48:11.668Z,97493.78
2023-02-06T03:50:41.453Z,97490.72
2023-02-06T03:53:09.780Z,97487.38
2023-02-06T03:55:38.533Z,97493.44
2023-02-06T03:58:09.534Z,97497.91
2023-02-06T04:00:37.838Z,97498.78
2023-02-06T04:03:04.792Z,97502.13
2023-02-06T04:05:31.233Z,97497.56
2023-02-06T04:07:57.753Z,97489.88
2023-02-06T04:10:26.184Z,97494.22
2023-02-06T04:12:53.233Z,97506.09
2023-02-06T04:15:19.659Z,97504.38
2023-02-06T04:17:58.905Z,97504.38
2023-02-06T04:20:26.919Z,97520.59
2023-02-06T04:22:53.451Z,97519.78
2023-02-06T04:25:19.948Z,97507.66
2023-02-06T04:27:46.417Z,97527.63
2023-02-06T04:30:13.167Z,97513.25
2023-02-06T04:32:39.597Z,97520.75
2023-02-06T04:35:06.267Z,97519.09
2023-02-06T04:37:33.035Z,97527.09
2023-02-06T04:39:59.462Z,97527.84
2023-02-06T04:42:25.887Z,97533.78
2023-02-06T04:44:52.374Z,97522.38
2023-02-06T04:47:18.812Z,97526.78
2023-02-06T04:49:45.281Z,97528.63
2023-02-06T04:52:11.725Z,97525.09
2023-02-06T04:54:38.189Z,97526.97
2023-02-06T04:57:04.911Z,97534.72
2023-02-06T04:59:31.312Z,97532.81
2023-02-06T05:01:57.740Z,97522.09
2023-02-06T05:04:24.170Z,97534.59
2023-02-06T05:06:50.600Z,97540.06
2023-02-06T05:09:17.025Z,97531.88
2023-02-06T05:11:43.447Z,97529.88
2023-02-06T05:14:09.860Z,97534.91
2023-02-06T05:16:36.303Z,97538.13
2023-02-06T05:19:02.724Z,97531.25
2023-02-06T05:21:29.212Z,97538.94
2023-02-06T05:23:55.729Z,97539.78
2023-02-06T05:26:22.494Z,97544.94
2023-02-06T05:28:48.937Z,97546.47
2023-02-06T05:31:19.732Z,97551.56
2023-02-06T05:33:47.484Z,97550.81
2023-02-06T05:36:14.100Z,97554.38
2023-02-06T05:38:40.714Z,97549.38
2023-02-06T05:41:07.164Z,97560.47
2023-02-06T05:43:33.803Z,97555.31
2023-02-06T05:46:00.285Z,97557.63
2023-02-06T05:48:30.484Z,97554.16
2023-02-06T05:50:58.300Z,97548.97
2023-02-06T05:53:24.779Z,97539.59
2023-02-06T05:55:51.262Z,97544.78
2023-02-06T05:58:17.760Z,97551.78
2023-02-06T06:00:44.349Z,97552.19
2023-02-06T06:03:10.820Z,97556.00
2023-02-06T06:05:37.492Z,97550.75
2023-02-06T06:08:04.210Z,97563.84
2023-02-06T06:10:30.626Z,97561.44
2023-02-06T06:12:57.181Z,97568.09
2023-02-06T06:15:23.628Z,97572.13
2023-02-06T06:17:50.333Z,97567.47
2023-02-06T06:20:16.821Z,97566.50
2023-02-06T06:22:43.267Z,97563.06
2023-02-06T06:25:09.808Z,97567.47
2023-02-06T06:27:36.324Z,97570.66
2023-02-06T06:30:03.091Z,97566.41
2023-02-06T06:32:29.567Z,97550.13
2023-02-06T06:34:56.002Z,97556.81
2023-02-06T06:37:22.457Z,97562.59
2023-02-06T06:39:48.881Z,97569.44
2023-02-06T06:42:15.344Z,97571.84
2023-02-06T06:44:41.776Z,97568.97
2023-02-06T06:47:08.250Z,97571.31
2023-02-06T06:49:34.746Z,97570.53
2023-02-06T06:52:01.174Z,97569.78
2023-02-06T06:54:27.861Z,97576.56
2023-02-06T06:56:54.346Z,97565.88
2023-02-06T06:59:20.766Z,97573.34
2023-02-06T07:01:49.096Z,97576.09
2023-02-06T07:04:15.553Z,97574.75
2023-02-06T07:06:41.978Z,97567.88
2023-02-06T07:09:08.380Z,97576.47
2023-02-06T07:11:34.818Z,97572.31
2023-02-06T07:14:02.362Z,97576.06
2023-02-06T07:16:29.043Z,97569.00
2023-02-06T07:18:55.605Z,97564.13
2023-02-06T07:21:22.196Z,97568.06
2023-02-06T07:23:48.684Z,97568.50
2023-02-06T07:26:15.115Z,97573.63
2023-02-06T07:28:42.275Z,97575.81
2023-02-06T07:31:08.837Z,97575.41
2023-02-06T07:33:35.367Z,97574.22
2023-02-06T07:36:03.978Z,97577.91
2023-02-06T07:38:30.748Z,97571.13
2023-02-06T07:41:00.792Z,97575.94
2023-02-06T07:43:27.221Z,97567.06
2023-02-06T07:45:53.685Z,97578.00
2023-02-06T07:48:20.142Z,97568.75
2023-02-06T07:50:47.220Z,97570.91
2023-02-06T07:53:13.681Z,97569.91
2023-02-06T07:55:40.097Z,97572.56
2023-02-06T07:58:06.692Z,97569.38
2023-02-06T08:00:33.184Z,97568.03
2023-02-06T08:02:59.674Z,97569.06
2023-02-06T08:05:26.155Z,97559.88
2023-02-06T08:07:52.753Z,97561.06
2023-02-06T08:10:19.217Z,97553.22
2023-02-06T08:12:45.711Z,97552.19
2023-02-06T08:15:12.215Z,97554.38
2023-02-06T08:17:38.634Z,97554.00
2023-02-06T08:20:05.261Z,97555.56
2023-02-06T08:22:31.926Z,97563.16
2023-02-06T08:24:58.356Z,97562.84
2023-02-06T08:27:24.849Z,97559.25
2023-02-06T08:29:51.834Z,97562.59
2023-02-06T08:32:18.424Z,97569.44
2023-02-06T08:34:44.910Z,97571.78
2023-02-06T08:37:11.326Z,97568.09
2023-02-06T08:39:38.546Z,97569.78
2023-02-06T08:42:05.183Z,97565.38
2023-02-06T08:44:31.863Z,97567.28
2023-02-06T08:47:09.154Z,97558.56
2023-02-06T08:49:36.394Z,97560.75
2023-02-06T08:52:02.818Z,97555.75
2023-02-06T08:54:29.327Z,97549.41
2023-02-06T08:57:01.001Z,97552.81
2023-02-06T08:59:29.413Z,97545.97
2023-02-06T09:01:55.840Z,97553.16
2023-02-06T09:04:22.504Z,97547.22
2023-02-06T09:06:49.295Z,97549.88
2023-02-06T09:09:16.386Z,97558.31
2023-02-06T09:11:43.241Z,97561.25
2023-02-06T09:14:13.058Z,97558.75
2023-02-06T09:16:39.554Z,97554.50
2023-02-06T09:19:06.540Z,97568.59
2023-02-06T09:21:34.424Z,97565.88
2023-02-06T09:24:02.622Z,97565.28
2023-02-06T09:26:33.265Z,97564.56
2023-02-06T09:29:00.933Z,97566.50
2023-02-06T09:31:30.717Z,97562.69
2023-02-06T09:33:58.054Z,97560.69
2023-02-06T09:36:24.521Z,97564.03
2023-02-06T09:38:53.496Z,97568.16
2023-02-06T09:41:39.280Z,97564.56
2023-02-06T09:44:08.705Z,97576.19
2023-02-06T09:46:36.972Z,97571.44
2023-02-06T09:49:09.170Z,97560.56
2023-02-06T09:51:40.187Z,97562.09
2023-02-06T09:54:18.772Z,97555.06
2023-02-06T09:56:45.340Z,97560.25
2023-02-06T09:59:20.910Z,97554.66
2023-02-06T10:01:47.376Z,97557.91
2023-02-06T10:04:26.167Z,97548.72
2023-02-06T10:07:21.801Z,97552.91
2023-02-06T10:09:58.487Z,97561.84
2023-02-06T10:12:30.433Z,97557.91
2023-02-06T10:15:07.324Z,97554.63
2023-02-06T10:17:57.097Z,97550.66
2023-02-06T10:20:26.595Z,97541.84
2023-02-06T10:23:04.840Z,97546.28
2023-02-06T10:25:33.260Z,97547.22
2023-02-06T10:28:02.388Z,97548.88
2023-02-06T10:30:36.444Z,97552.47
2023-02-06T10:33:24.849Z,97548.81
2023-02-06T10:35:59.980Z,97546.72
2023-02-06T10:38:32.616Z,97540.22
2023-02-06T10:41:04.508Z,97538.69
2023-02-06T10:43:45.988Z,97543.19
2023-02-06T10:46:12.403Z,97544.44
2023-02-06T10:48:58.099Z,97546.22
2023-02-06T10:51:38.808Z,97539.69
2023-02-06T10:54:12.487Z,97537.44
2023-02-06T10:56:44.469Z,97546.88
2023-02-06T10:59:22.348Z,97538.28
2023-02-06T11:01:50.595Z,97542.88
2023-02-06T11:04:20.118Z,97539.69
2023-02-06T11:06:46.990Z,97546.56
2023-02-06T11:09:14.497Z,97545.03
2023-02-06T11:11:45.305Z,97548.88
2023-02-06T11:14:24.986Z,97553.53
2023-02-06T11:16:51.710Z,97553.38
2023-02-06T11:19:26.712Z,97559.41
2023-02-06T11:21:53.416Z,97557.75
2023-02-06T11:24:22.472Z,97556.63
2023-02-06T11:26:54.691Z,97555.06
2023-02-06T11:29:26.303Z,97558.22
2023-02-06T11:31:58.601Z,97568.59
2023-02-06T11:34:32.889Z,97549.38
2023-02-06T11:37:03.730Z,97548.19
2023-02-06T11:39:34.802Z,97558.41
2023-02-06T11:42:03.260Z,97553.06
2023-02-06T11:44:36.122Z,97554.41
2023-02-06T11:47:21.474Z,97553.31
2023-02-06T11:49:47.968Z,97550.22
2023-02-06T11:52:40.794Z,97539.84
2023-02-06T11:55:20.330Z,97547.53
2023-02-06T11:58:00.678Z,97535.53
2023-02-06T12:00:27.424Z,97539.69
2023-02-06T12:02:55.085Z,97549.56
2023-02-06T12:05:22.724Z,97546.19
2023-02-06T12:07:57.738Z,97547.63
2023-02-06T12:10:25.524Z,97538.50
2023-02-06T12:12:54.153Z,97539.59
2023-02-06T12:15:46.945Z,97533.16
2023-02-06T12:18:24.125Z,97535.00
2023-02-06T12:20:56.190Z,97527.97
2023-02-06T12:23:28.562Z,97529.81
2023-02-06T12:25:56.937Z,97532.16
2023-02-06T12:28:32.400Z,97530.66
2023-02-06T12:31:01.095Z,97537.09
2023-02-06T12:33:35.233Z,97537.00
2023-02-06T12:36:03.570Z,97533.69
2023-02-06T12:38:29.959Z,97534.69
2023-02-06T12:40:59.461Z,97540.69
2023-02-06T12:43:27.372Z,97542.53
2023-02-06T12:45:53.916Z,97540.22
2023-02-06T12:48:26.361Z,97534.84
2023-02-06T12:51:11.455Z,97535.69
2023-02-06T12:53:45.027Z,97541.88
2023-02-06T12:56:29.797Z,97546.47
2023-02-06T12:59:02.595Z,97550.56
2023-02-06T13:01:33.843Z,97549.72
2023-02-06T13:04:04.482Z,97545.38
2023-02-06T13:06:41.746Z,97544.38
2023-02-06T13:09:08.580Z,97546.19
2023-02-06T13:11:40.601Z,97536.19
2023-02-06T13:14:27.705Z,97540.53
2023-02-06T13:17:01.065Z,97546.47
2023-02-06T13:19:27.501Z,97551.28
2023-02-06T13:22:14.597Z,97564.09
2023-02-06T13:24:42.680Z,97554.03
2023-02-06T13:27:09.091Z,97560.56
2023-02-06T13:29:42.823Z,97569.38
2023-02-06T13:32:12.369Z,97569.13
2023-02-06T13:34:42.741Z,97572.97
2023-02-06T13:37:27.995Z,97567.28
2023-02-06T13:40:13.328Z,97564.75
2023-02-06T13:42:58.625Z,97568.84
2023-02-06T13:45:30.950Z,97578.47
2023-02-06T13:47:57.428Z,97581.50
2023-02-06T13:50:23.924Z,97580.75
2023-02-06T13:53:08.930Z,97574.78
2023-02-06T13:55:42.567Z,97572.78
2023-02-06T13:58:27.647Z,97574.13
2023-02-06T14:00:54.602Z,97566.56
2023-02-06T14:03:31.627Z,97574.94
2023-02-06T14:06:10.363Z,97569.75
2023-02-06T14:09:00.033Z,97583.06
2023-02-06T14:11:26.518Z,97581.16
2023-02-06T14:14:04.453Z,97581.81
2023-02-06T14:16:43.049Z,97583.31
2023-02-06T14:19:24.458Z,97588.50
2023-02-06T14:21:56.976Z,97589.25
2023-02-06T14:24:42.364Z,97580.31
2023-02-06T14:27:11.589Z,97577.47
2023-02-06T14:29:49.912Z,97573.38
2023-02-06T14:32:35.173Z,97578.91
2023-02-06T14:35:20.435Z,97579.38
2023-02-06T14:37:47.346Z,97584.56
2023-02-06T14:40:18.860Z,97578.72
2023-02-06T14:42:45.502Z,97582.22
2023-02-06T14:45:23.038Z,97582.97
2023-02-06T14:47:50.243Z,97586.41
2023-02-06T14:50:24.956Z,97583.25
2023-02-06T14:53:03.463Z,97589.66
2023-02-06T14:55:30.585Z,97590.25
2023-02-06T14:57:57.011Z,97590.34
2023-02-06T15:00:23.897Z,97589.97
2023-02-06T15:03:03.019Z,97591.69
2023-02-06T15:05:31.862Z,97589.66
2023-02-06T15:07:59.185Z,97590.56
2023-02-06T15:10:30.448Z,97594.84
2023-02-06T15:12:57.394Z,97591.72
2023-02-06T15:15:25.233Z,97607.22
2023-02-06T15:18:00.810Z,97602.94
2023-02-06T15:20:36.325Z,97600.72
2023-02-06T15:23:16.560Z,97595.16
2023-02-06T15:25:44.320Z,97594.75
2023-02-06T15:28:16.371Z,97598.00
2023-02-06T15:30:43.047Z,97601.50
2023-02-06T15:33:10.465Z,97601.19
2023-02-06T15:35:39.119Z,97602.34
2023-02-06T15:38:07.374Z,97595.34
2023-02-06T15:40:35.943Z,97597.28
2023-02-06T15:43:03.039Z,97600.44
2023-02-06T15:45:31.772Z,97599.47
2023-02-06T15:47:58.798Z,97601.03
2023-02-06T15:50:27.628Z,97607.66
2023-02-06T15:52:54.522Z,97615.06
2023-02-06T15:55:25.507Z,97617.75
2023-02-06T15:57:52.294Z,97619.34
2023-02-06T16:00:24.239Z,97625.13
2023-02-06T16:02:51.538Z,97630.13
2023-02-06T16:05:30.723Z,97624.72
2023-02-06T16:07:59.751Z,97626.97
2023-02-06T16:10:35.789Z,97631.16
2023-02-06T16:13:08.541Z,97636.34
2023-02-06T16:15:36.769Z,97637.31
2023-02-06T16:18:21.873Z,97629.47
2023-02-06T16:20:48.476Z,97643.00
2023-02-06T16:23:18.934Z,97632.31
2023-02-06T16:25:46.929Z,97638.84
2023-02-06T16:28:24.817Z,97635.09
2023-02-06T16:30:54.322Z,97642.50
2023-02-06T16:33:28.627Z,97643.84
2023-02-06T16:35:55.097Z,97646.03
2023-02-06T16:38:21.532Z,97643.34
2023-02-06T16:40:49.811Z,97639.25
2023-02-06T16:43:16.290Z,97637.59
2023-02-06T16:45:42.770Z,97638.66
2023-02-06T16:48:13.358Z,97641.34
2023-02-06T16:50:40.766Z,97641.25
2023-02-06T16:53:11.051Z,97642.03
2023-02-06T16:55:37.475Z,97643.09
2023-02-06T16:58:04.022Z,97637.31
2023-02-06T17:00:31.478Z,97639.69
2023-02-06T17:02:58.571Z,97638.00
2023-02-06T17:05:26.559Z,97641.25
2023-02-06T17:07:53.418Z,97647.38
2023-02-06T17:10:21.388Z,97647.53
2023-02-06T17:12:48.585Z,97641.81
2023-02-06T17:15:16.401Z,97646.41
2023-02-06T17:17:43.243Z,97644.84
2023-02-06T17:20:33.060Z,97646.19
2023-02-06T17:22:59.700Z,97651.53
2023-02-06T17:25:26.454Z,97652.19
2023-02-06T17:27:53.572Z,97653.19
2023-02-06T17:30:21.436Z,97651.53
2023-02-06T17:32:48.018Z,97646.19
2023-02-06T17:35:14.933Z,97643.84
2023-02-06T17:37:41.502Z,97648.47
2023-02-06T17:40:08.422Z,97651.97
2023-02-06T17:42:34.915Z,97651.59
2023-02-06T17:45:01.353Z,97661.03
2023-02-06T17:47:27.854Z,97652.47
2023-02-06T17:49:54.316Z,97662.72
2023-02-06T17:52:20.855Z,97663.78
2023-02-06T17:54:47.306Z,97660.69
2023-02-06T17:57:13.736Z,97664.41
2023-02-06T17:59:40.320Z,97660.34
2023-02-06T18:02:06.814Z,97658.72
2023-02-06T18:04:33.278Z,97650.19
2023-02-06T18:06:59.741Z,97658.03
2023-02-06T18:09:26.174Z,97661.06
2023-02-06T18:11:52.621Z,97667.63
2023-02-06T18:14:19.074Z,97666.72
2023-02-06T18:16:47.090Z,97670.81
2023-02-06T18:19:13.754Z,97679.09
2023-02-06T18:21:40.184Z,97674.53
2023-02-06T18:24:07.081Z,97668.81
2023-02-06T18:26:33.584Z,97679.03
2023-02-06T18:29:03.092Z,97673.41
2023-02-06T18:31:31.242Z,97670.91
2023-02-06T18:33:57.765Z,97675.59
2023-02-06T18:36:24.284Z,97669.88
2023-02-06T18:38:50.857Z,97669.69
2023-02-06T18:41:35.937Z,97670.06
2023-02-06T18:44:07.846Z,97676.91
2023-02-06T18:46:34.702Z,97684.47
2023-02-06T18:49:01.382Z,97674.63
2023-02-06T18:51:29.104Z,97684.44
2023-02-06T18:53:55.532Z,97684.03
2023-02-06T18:56:22.042Z,97677.06
2023-02-06T18:58:48.471Z,97679.06
2023-02-06T19:01:24.280Z,97678.47
2023-02-06T19:03:52.143Z,97684.66
2023-02-06T19:06:29.836Z,97686.78
2023-02-06T19:08:56.936Z,97686.22
2023-02-06T19:11:23.442Z,97678.91
2023-02-06T19:13:49.931Z,97686.13
2023-02-06T19:16:18.877Z,97692.34
2023-02-06T19:18:46.468Z,97682.19
2023-02-06T19:21:17.209Z,97684.22
2023-02-06T19:23:44.659Z,97680.16
2023-02-06T19:26:12.561Z,97675.22
2023-02-06T19:28:39.890Z,97678.91
2023-02-06T19:31:06.902Z,97673.09
2023-02-06T19:33:34.593Z,97675.75
2023-02-06T19:36:08.044Z,97678.72
2023-02-06T19:38:34.795Z,97680.78
2023-02-06T19:41:05.141Z,97685.53
2023-02-06T19:43:31.596Z,97684.06
2023-02-06T19:46:01.518Z,97689.50
2023-02-06T19:48:27.953Z,97699.97
2023-02-06T19:50:54.396Z,97700.28
2023-02-06T19:53:20.864Z,97706.41
2023-02-06T19:55:48.473Z,97702.88
2023-02-06T19:58:14.913Z,97703.84
2023-02-06T20:00:41.355Z,97708.44
2023-02-06T20:03:07.870Z,97705.06
2023-02-06T20:05:34.370Z,97711.41
2023-02-06T20:08:00.846Z,97713.47
2023-02-06T20:10:27.306Z,97716.25
2023-02-06T20:12:54.879Z,97730.00
2023-02-06T20:15:21.303Z,97725.63
2023-02-06T20:17:50.326Z,97734.66
2023-02-06T20:20:16.819Z,97729.84
2023-02-06T20:22:43.295Z,97726.72
2023-02-06T20:25:09.783Z,97723.53
2023-02-06T20:27:36.479Z,97736.69
2023-02-06T20:30:03.489Z,97742.81
2023-02-06T20:32:29.914Z,97743.81
2023-02-06T20:34:57.205Z,97751.75
2023-02-06T20:37:23.656Z,97746.72
2023-02-06T20:39:50.120Z,97733.13
2023-02-06T20:42:16.895Z,97733.22
2023-02-06T20:44:43.320Z,97736.75
2023-02-06T20:47:09.795Z,97749.81
2023-02-06T20:49:36.293Z,97741.41
2023-02-06T20:52:03.404Z,97751.88
2023-02-06T20:54:30.930Z,97751.97
2023-02-06T20:56:57.521Z,97742.25
2023-02-06T20:59:23.993Z,97744.97
2023-02-06T21:01:50.447Z,97750.94
2023-02-06T21:04:17.404Z,97751.88
2023-02-06T21:06:44.055Z,97757.97
2023-02-06T21:09:10.988Z,97758.88
2023-02-06T21:11:42.545Z,97753.94
2023-02-06T21:14:09.036Z,97752.63
2023-02-06T21:16:37.586Z,97753.59
2023-02-06T21:19:05.760Z,97756.97
2023-02-06T21:21:32.390Z,97758.66
2023-02-06T21:23:58.968Z,97769.16
2023-02-06T21:26:26.142Z,97771.03
2023-02-06T21:28:52.617Z,97766.06
2023-02-06T21:31:21.041Z,97764.47
2023-02-06T21:33:48.420Z,97771.34
2023-02-06T21:36:15.215Z,97776.47
2023-02-06T21:38:42.142Z,97788.31
2023-02-06T21:41:10.387Z,97782.50
2023-02-06T21:43:36.864Z,97780.22
2023-02-06T21:46:03.638Z,97787.88
2023-02-06T21:48:30.231Z,97785.50
2023-02-06T21:50:57.037Z,97787.34
2023-02-06T21:53:23.575Z,97784.00
2023-02-06T21:55:49.998Z,97785.81
2023-02-06T21:58:16.778Z,97796.16
2023-02-06T22:00:44.593Z,97802.84
2023-02-06T22:03:11.462Z,97803.75
2023-02-06T22:05:38.571Z,97796.97
2023-02-06T22:08:05.689Z,97802.25
2023-02-06T22:10:32.179Z,97806.72
2023-02-06T22:12:58.611Z,97796.53
2023-02-06T22:15:25.063Z,97811.06
2023-02-06T22:17:51.556Z,97811.84
2023-02-06T22:20:18.042Z,97815.31
2023-02-06T22:22:44.452Z,97826.63
2023-02-06T22:25:11.807Z,97826.75
2023-02-06T22:27:38.355Z,97824.13
2023-02-06T22:30:05.742Z,97835.69
2023-02-06T22:32:32.244Z,97825.34
2023-02-06T22:34:59.474Z,97816.56
2023-02-06T22:37:26.128Z,97816.53
2023-02-06T22:39:55.901Z,97824.94
2023-02-06T22:42:22.833Z,97821.47
2023-02-06T22:44:49.404Z,97823.19
2023-02-06T22:47:15.837Z,97832.97
2023-02-06T22:49:42.498Z,97832.78
2023-02-06T22:52:28.901Z,97839.38
2023-02-06T22:54:55.562Z,97845.19
2023-02-06T22:57:22.049Z,97838.25
2023-02-06T22:59:48.701Z,97850.28
2023-02-06T23:02:15.233Z,97840.16
2023-02-06T23:04:41.737Z,97836.69
2023-02-06T23:07:08.153Z,97840.41
2023-02-06T23:09:35.761Z,97857.75
2023-02-06T23:12:02.931Z,97857.84
2023-02-06T23:14:30.425Z,97854.41
2023-02-06T23:16:57.575Z,97854.25
2023-02-06T23:19:24.406Z,97855.66
2023-02-06T23:21:51.412Z,97862.19
2023-02-06T23:24:18.507Z,97876.56
2023-02-06T23:26:46.257Z,97871.19
2023-02-06T23:29:17.265Z,97875.31
2023-02-06T23:31:44.151Z,97877.84
2023-02-06T23:34:10.795Z,97872.88
2023-02-06T23:36:37.349Z,97860.13
2023-02-06T23:39:04.252Z,97849.97
2023-02-06T23:41:30.982Z,97851.41
2023-02-06T23:43:58.855Z,97843.66
2023-02-06T23:46:26.422Z,97850.28
2023-02-06T23:48:53.176Z,97845.88
2023-02-06T23:51:20.569Z,97840.50
2023-02-06T23:53:47.226Z,97845.66
2023-02-06T23:56:16.051Z,97850.00
2023-02-06T23:58:42.691Z,97854.28
